Stewart International Airport Newburgh US
ICAO: KSWF
IATA: SWF
Category: Medium
Scheduled Services: Yes

Elevation: 491 ft
TransAlt. 18000 ft.

Airport Communications:
105 AW COMD POST:37.94
ATIS:124.575
NEW YORK CNTR:132.75
GND:121.9
AR OPS:38.5
ARMY OPS:49.75
TWR:121
UNICOM:122.95

KSWF Zoom In..

Runways:

(A) RW 09 length 11817 ft width 150 ft
ILS 110.10 / hdg 92

(B) RW 16 length 6004 ft width 150 ft
---- / hdg 163

(C) RW 27 length 11817 ft width 150 ft
ILS 109.95 / hdg 272

(D) RW 34 length 6004 ft width 150 ft
---- / hdg 343

Location; KSWF
Day. 25 / Time. 09.45 Zulu
* Altimeter: 30.01
* Temperature: 10° c. 50°f.
* Wind from: 070° Speed 06 kn.
Dewpoint: 10° c.
Visibility: 10 Statute Miles.
Clouds: Overcast 600 ft.

KSWF 250945Z 07006KT 10SM OVC006 10/10 A3001


Wind From 070°
Speed 06 kn.

  YouTube Music Video
 
jpsmedia.com for Web Design  worldairports.se 2018   terms of use